sensor_id;sensor_type;location;lat;lon;timestamp;temperature;humidity
15926;DHT22;8062;53.882;10.642;2022-09-16T00:00:05;10.60;99.90
15926;DHT22;8062;53.882;10.642;2022-09-16T00:01:16;10.60;99.90
15926;DHT22;8062;53.882;10.642;2022-09-16T00:02:17;10.60;99.90
15926;DHT22;8062;53.882;10.642;2022-09-16T00:03:19;10.50;99.90
15926;DHT22;8062;53.882;10.642;2022-09-16T00:04:20;10.50;99.90
15926;DHT22;8062;53.882;10.642;2022-09-16T00:05:21;10.50;99.90
15926;DHT22;8062;53.882;10.642;2022-09-16T00:06:25;10.50;99.90
15926;DHT22;8062;53.882;10.642;2022-09-16T00:07:28;10.50;99.90
15926;DHT22;8062;53.882;10.642;2022-09-16T00:08:29;10.50;99.90
15926;DHT22;8062;53.882;10.642;2022-09-16T00:09:31;10.50;99.90
15926;DHT22;8062;53.882;10.642;2022-09-16T00:10:33;10.50;99.90
15926;DHT22;8062;53.882;10.642;2022-09-16T00:11:35;10.50;99.90
15926;DHT22;8062;53.882;10.642;2022-09-16T00:12:36;10.50;99.90
15926;DHT22;8062;53.882;10.642;2022-09-16T00:13:37;10.50;99.90
15926;DHT22;8062;53.882;10.642;2022-09-16T00:14:39;10.50;99.90
15926;DHT22;8062;53.882;10.642;2022-09-16T00:15:48;10.50;99.90
15926;DHT22;8062;53.882;10.642;2022-09-16T00:16:50;10.40;99.90
15926;DHT22;8062;53.882;10.642;2022-09-16T00:17:51;10.40;99.90
15926;DHT22;8062;53.882;10.642;2022-09-16T00:18:56;10.50;99.90
15926;DHT22;8062;53.882;10.642;2022-09-16T00:19:57;10.40;99.90
15926;DHT22;8062;53.882;10.642;2022-09-16T00:20:59;10.40;99.90
15926;DHT22;8062;53.882;10.642;2022-09-16T00:22:00;10.40;99.90
15926;DHT22;8062;53.882;10.642;2022-09-16T00:23:01;10.40;99.90
15926;DHT22;8062;53.882;10.642;2022-09-16T00:24:02;10.40;99.90
15926;DHT22;8062;53.882;10.642;2022-09-16T00:25:03;10.50;99.90
15926;DHT22;8062;53.882;10.642;2022-09-16T00:26:04;10.40;99.90
15926;DHT22;8062;53.882;10.642;2022-09-16T00:27:05;10.30;99.90
15926;DHT22;8062;53.882;10.642;2022-09-16T00:28:07;10.40;99.90
15926;DHT22;8062;53.882;10.642;2022-09-16T00:29:08;10.30;99.90
15926;DHT22;8062;53.882;10.642;2022-09-16T00:30:10;10.30;99.90
15926;DHT22;8062;53.882;10.642;2022-09-16T00:31:11;10.30;99.90
15926;DHT22;8062;53.882;10.642;2022-09-16T00:32:12;10.30;99.90
15926;DHT22;8062;53.882;10.642;2022-09-16T00:33:13;10.30;99.90
15926;DHT22;8062;53.882;10.642;2022-09-16T00:34:15;10.30;99.90
15926;DHT22;8062;53.882;10.642;2022-09-16T00:35:16;10.30;99.90
15926;DHT22;8062;53.882;10.642;2022-09-16T00:36:18;10.30;99.90
15926;DHT22;8062;53.882;10.642;2022-09-16T00:37:19;10.30;99.90
15926;DHT22;8062;53.882;10.642;2022-09-16T00:38:20;10.30;99.90
15926;DHT22;8062;53.882;10.642;2022-09-16T00:39:21;10.30;99.90
15926;DHT22;8062;53.882;10.642;2022-09-16T00:40:22;10.30;99.90
15926;DHT22;8062;53.882;10.642;2022-09-16T00:41:26;10.40;99.90
15926;DHT22;8062;53.882;10.642;2022-09-16T00:42:28;10.40;99.90
15926;DHT22;8062;53.882;10.642;2022-09-16T00:43:55;10.40;99.90
15926;DHT22;8062;53.882;10.642;2022-09-16T00:45:00;10.40;99.90
15926;DHT22;8062;53.882;10.642;2022-09-16T00:46:03;10.30;99.90
15926;DHT22;8062;53.882;10.642;2022-09-16T00:47:05;10.40;99.90
15926;DHT22;8062;53.882;10.642;2022-09-16T00:48:08;10.30;99.90
15926;DHT22;8062;53.882;10.642;2022-09-16T00:49:19;10.40;99.90
15926;DHT22;8062;53.882;10.642;2022-09-16T00:51:29;10.40;99.90
15926;DHT22;8062;53.882;10.642;2022-09-16T00:52:31;10.40;99.90
15926;DHT22;8062;53.882;10.642;2022-09-16T00:53:36;10.40;99.90
15926;DHT22;8062;53.882;10.642;2022-09-16T00:54:40;10.40;99.90
15926;DHT22;8062;53.882;10.642;2022-09-16T00:55:42;10.40;99.90
15926;DHT22;8062;53.882;10.642;2022-09-16T00:56:46;10.40;99.90
15926;DHT22;8062;53.882;10.642;2022-09-16T00:57:48;10.50;99.90
15926;DHT22;8062;53.882;10.642;2022-09-16T01:00:05;10.50;99.90
15926;DHT22;8062;53.882;10.642;2022-09-16T01:01:08;10.50;99.90
15926;DHT22;8062;53.882;10.642;2022-09-16T01:02:15;10.40;99.90
15926;DHT22;8062;53.882;10.642;2022-09-16T01:03:17;10.40;99.90
15926;DHT22;8062;53.882;10.642;2022-09-16T01:04:26;10.40;99.90
15926;DHT22;8062;53.882;10.642;2022-09-16T01:05:28;10.40;99.90
15926;DHT22;8062;53.882;10.642;2022-09-16T01:06:30;10.50;99.90
15926;DHT22;8062;53.882;10.642;2022-09-16T01:07:40;10.50;99.90
15926;DHT22;8062;53.882;10.642;2022-09-16T01:08:42;10.50;99.90
15926;DHT22;8062;53.882;10.642;2022-09-16T01:09:44;10.50;99.90
15926;DHT22;8062;53.882;10.642;2022-09-16T01:10:45;10.50;99.90
15926;DHT22;8062;53.882;10.642;2022-09-16T01:11:46;10.50;99.90
15926;DHT22;8062;53.882;10.642;2022-09-16T01:12:57;10.50;99.90
15926;DHT22;8062;53.882;10.642;2022-09-16T01:14:00;10.60;99.90
15926;DHT22;8062;53.882;10.642;2022-09-16T01:15:30;10.60;99.90
15926;DHT22;8062;53.882;10.642;2022-09-16T01:16:37;10.60;99.90
15926;DHT22;8062;53.882;10.642;2022-09-16T01:17:57;10.60;99.90
15926;DHT22;8062;53.882;10.642;2022-09-16T01:19:13;10.60;99.90
15926;DHT22;8062;53.882;10.642;2022-09-16T01:22:16;10.60;99.90
15926;DHT22;8062;53.882;10.642;2022-09-16T01:26:34;10.60;99.90
15926;DHT22;8062;53.882;10.642;2022-09-16T01:30:35;10.50;99.90
15926;DHT22;8062;53.882;10.642;2022-09-16T01:33:23;10.50;99.90
15926;DHT22;8062;53.882;10.642;2022-09-16T01:37:36;10.40;99.90
15926;DHT22;8062;53.882;10.642;2022-09-16T01:41:39;10.40;99.90
15926;DHT22;8062;53.882;10.642;2022-09-16T01:46:09;10.50;99.90
15926;DHT22;8062;53.882;10.642;2022-09-16T01:48:36;10.50;99.90
15926;DHT22;8062;53.882;10.642;2022-09-16T01:51:37;10.50;99.90
15926;DHT22;8062;53.882;10.642;2022-09-16T01:53:17;10.50;99.90
15926;DHT22;8062;53.882;10.642;2022-09-16T01:55:40;10.50;99.90
15926;DHT22;8062;53.882;10.642;2022-09-16T01:56:48;10.50;99.90
15926;DHT22;8062;53.882;10.642;2022-09-16T01:57:57;10.50;99.90
15926;DHT22;8062;53.882;10.642;2022-09-16T01:59:08;10.50;99.90
15926;DHT22;8062;53.882;10.642;2022-09-16T02:00:11;10.50;99.90
15926;DHT22;8062;53.882;10.642;2022-09-16T02:01:22;10.50;99.90
15926;DHT22;8062;53.882;10.642;2022-09-16T02:02:56;10.50;99.90
15926;DHT22;8062;53.882;10.642;2022-09-16T02:04:02;10.50;99.90
15926;DHT22;8062;53.882;10.642;2022-09-16T02:05:10;10.50;99.90
15926;DHT22;8062;53.882;10.642;2022-09-16T02:06:18;10.50;99.90
15926;DHT22;8062;53.882;10.642;2022-09-16T02:07:24;10.50;99.90
15926;DHT22;8062;53.882;10.642;2022-09-16T02:08:41;10.60;99.90
15926;DHT22;8062;53.882;10.642;2022-09-16T02:09:48;10.60;99.90
15926;DHT22;8062;53.882;10.642;2022-09-16T02:10:55;10.60;99.90
15926;DHT22;8062;53.882;10.642;2022-09-16T02:12:01;10.60;99.90
15926;DHT22;8062;53.882;10.642;2022-09-16T02:13:11;10.50;99.90
15926;DHT22;8062;53.882;10.642;2022-09-16T02:14:18;10.50;99.90
15926;DHT22;8062;53.882;10.642;2022-09-16T02:15:23;10.50;99.90
15926;DHT22;8062;53.882;10.642;2022-09-16T02:16:29;10.50;99.90
15926;DHT22;8062;53.882;10.642;2022-09-16T02:17:35;10.50;99.90
15926;DHT22;8062;53.882;10.642;2022-09-16T02:18:39;10.50;99.90
15926;DHT22;8062;53.882;10.642;2022-09-16T02:19:42;10.50;99.90
15926;DHT22;8062;53.882;10.642;2022-09-16T02:20:45;10.50;99.90
15926;DHT22;8062;53.882;10.642;2022-09-16T02:21:50;10.40;99.90
15926;DHT22;8062;53.882;10.642;2022-09-16T02:22:59;10.50;99.90
15926;DHT22;8062;53.882;10.642;2022-09-16T02:24:04;10.50;99.90
15926;DHT22;8062;53.882;10.642;2022-09-16T02:25:08;10.40;99.90
15926;DHT22;8062;53.882;10.642;2022-09-16T02:26:14;10.40;99.90
15926;DHT22;8062;53.882;10.642;2022-09-16T02:27:19;10.40;99.90
15926;DHT22;8062;53.882;10.642;2022-09-16T02:28:25;10.40;99.90
15926;DHT22;8062;53.882;10.642;2022-09-16T02:29:36;10.40;99.90
15926;DHT22;8062;53.882;10.642;2022-09-16T02:30:44;10.30;99.90
15926;DHT22;8062;53.882;10.642;2022-09-16T02:31:48;10.30;99.90
15926;DHT22;8062;53.882;10.642;2022-09-16T02:32:56;10.30;99.90
15926;DHT22;8062;53.882;10.642;2022-09-16T02:34:02;10.30;99.90
15926;DHT22;8062;53.882;10.642;2022-09-16T02:35:07;10.40;99.90
15926;DHT22;8062;53.882;10.642;2022-09-16T02:36:12;10.30;99.90
15926;DHT22;8062;53.882;10.642;2022-09-16T02:37:18;10.30;99.90
15926;DHT22;8062;53.882;10.642;2022-09-16T02:38:30;10.30;99.90
15926;DHT22;8062;53.882;10.642;2022-09-16T02:39:35;10.30;99.90
15926;DHT22;8062;53.882;10.642;2022-09-16T02:40:43;10.30;99.90
15926;DHT22;8062;53.882;10.642;2022-09-16T02:41:45;10.30;99.90
15926;DHT22;8062;53.882;10.642;2022-09-16T02:42:47;10.30;99.90
15926;DHT22;8062;53.882;10.642;2022-09-16T02:43:49;10.30;99.90
15926;DHT22;8062;53.882;10.642;2022-09-16T02:44:50;10.30;99.90
15926;DHT22;8062;53.882;10.642;2022-09-16T02:46:14;10.20;99.90
15926;DHT22;8062;53.882;10.642;2022-09-16T02:47:30;10.20;99.90
15926;DHT22;8062;53.882;10.642;2022-09-16T02:49:54;10.20;99.90
15926;DHT22;8062;53.882;10.642;2022-09-16T02:53:45;10.20;99.90
15926;DHT22;8062;53.882;10.642;2022-09-16T02:55:11;10.20;99.90
15926;DHT22;8062;53.882;10.642;2022-09-16T02:56:28;10.20;99.90
15926;DHT22;8062;53.882;10.642;2022-09-16T02:57:30;10.20;99.90
15926;DHT22;8062;53.882;10.642;2022-09-16T02:58:31;10.20;99.90
15926;DHT22;8062;53.882;10.642;2022-09-16T02:59:32;10.20;99.90
15926;DHT22;8062;53.882;10.642;2022-09-16T03:00:38;10.20;99.90
15926;DHT22;8062;53.882;10.642;2022-09-16T03:01:45;10.20;99.90
15926;DHT22;8062;53.882;10.642;2022-09-16T03:02:46;10.20;99.90
15926;DHT22;8062;53.882;10.642;2022-09-16T03:03:47;10.20;99.90
15926;DHT22;8062;53.882;10.642;2022-09-16T03:04:49;10.20;99.90
15926;DHT22;8062;53.882;10.642;2022-09-16T03:07:11;10.20;99.90
15926;DHT22;8062;53.882;10.642;2022-09-16T03:08:13;10.20;99.90
15926;DHT22;8062;53.882;10.642;2022-09-16T03:09:15;10.20;99.90
15926;DHT22;8062;53.882;10.642;2022-09-16T03:10:18;10.20;99.90
15926;DHT22;8062;53.882;10.642;2022-09-16T03:11:40;10.20;99.90
15926;DHT22;8062;53.882;10.642;2022-09-16T03:14:14;10.20;99.90
15926;DHT22;8062;53.882;10.642;2022-09-16T03:15:47;10.10;99.90
15926;DHT22;8062;53.882;10.642;2022-09-16T03:18:49;10.10;99.90
15926;DHT22;8062;53.882;10.642;2022-09-16T03:20:14;10.20;99.90
15926;DHT22;8062;53.882;10.642;2022-09-16T03:21:36;10.10;99.90
15926;DHT22;8062;53.882;10.642;2022-09-16T03:27:15;10.10;99.90
15926;DHT22;8062;53.882;10.642;2022-09-16T03:28:26;10.10;99.90
15926;DHT22;8062;53.882;10.642;2022-09-16T03:29:40;10.10;99.90
15926;DHT22;8062;53.882;10.642;2022-09-16T03:31:00;10.10;99.90
15926;DHT22;8062;53.882;10.642;2022-09-16T03:33:34;10.10;99.90
15926;DHT22;8062;53.882;10.642;2022-09-16T03:35:26;10.00;99.90
15926;DHT22;8062;53.882;10.642;2022-09-16T03:36:08;10.00;99.90
15926;DHT22;8062;53.882;10.642;2022-09-16T03:37:16;10.00;99.90
15926;DHT22;8062;53.882;10.642;2022-09-16T03:38:19;10.00;99.90
15926;DHT22;8062;53.882;10.642;2022-09-16T03:39:21;10.00;99.90
15926;DHT22;8062;53.882;10.642;2022-09-16T03:40:22;10.00;99.90
15926;DHT22;8062;53.882;10.642;2022-09-16T03:41:27;10.00;99.90
15926;DHT22;8062;53.882;10.642;2022-09-16T03:42:29;10.00;99.90
15926;DHT22;8062;53.882;10.642;2022-09-16T03:43:30;10.00;99.90
15926;DHT22;8062;53.882;10.642;2022-09-16T03:44:37;10.00;99.90
15926;DHT22;8062;53.882;10.642;2022-09-16T03:45:39;10.00;99.90
15926;DHT22;8062;53.882;10.642;2022-09-16T03:46:42;10.00;99.90
15926;DHT22;8062;53.882;10.642;2022-09-16T03:47:45;10.00;99.90
15926;DHT22;8062;53.882;10.642;2022-09-16T03:48:46;10.00;99.90
15926;DHT22;8062;53.882;10.642;2022-09-16T03:49:47;10.00;99.90
15926;DHT22;8062;53.882;10.642;2022-09-16T03:50:48;10.00;99.90
15926;DHT22;8062;53.882;10.642;2022-09-16T03:51:49;10.00;99.90
15926;DHT22;8062;53.882;10.642;2022-09-16T03:52:51;10.00;99.90
15926;DHT22;8062;53.882;10.642;2022-09-16T03:53:52;10.00;99.90
15926;DHT22;8062;53.882;10.642;2022-09-16T03:54:54;10.00;99.90
15926;DHT22;8062;53.882;10.642;2022-09-16T03:55:55;10.00;99.90
15926;DHT22;8062;53.882;10.642;2022-09-16T03:56:56;10.00;99.90
15926;DHT22;8062;53.882;10.642;2022-09-16T03:57:57;10.00;99.90
15926;DHT22;8062;53.882;10.642;2022-09-16T03:58:58;10.00;99.90
15926;DHT22;8062;53.882;10.642;2022-09-16T03:59:59;10.00;99.90
15926;DHT22;8062;53.882;10.642;2022-09-16T04:01:00;10.00;99.90
15926;DHT22;8062;53.882;10.642;2022-09-16T04:02:01;10.00;99.90
15926;DHT22;8062;53.882;10.642;2022-09-16T04:03:02;10.00;99.90
15926;DHT22;8062;53.882;10.642;2022-09-16T04:04:03;10.00;99.90
15926;DHT22;8062;53.882;10.642;2022-09-16T04:05:05;10.00;99.90
15926;DHT22;8062;53.882;10.642;2022-09-16T04:06:06;10.00;99.90
15926;DHT22;8062;53.882;10.642;2022-09-16T04:07:07;10.00;99.90
15926;DHT22;8062;53.882;10.642;2022-09-16T04:08:08;10.00;99.90
15926;DHT22;8062;53.882;10.642;2022-09-16T04:09:10;10.00;99.90
15926;DHT22;8062;53.882;10.642;2022-09-16T04:10:12;9.90;99.90
15926;DHT22;8062;53.882;10.642;2022-09-16T04:11:13;9.90;99.90
15926;DHT22;8062;53.882;10.642;2022-09-16T04:12:14;9.90;99.90
15926;DHT22;8062;53.882;10.642;2022-09-16T04:13:15;10.00;99.90
15926;DHT22;8062;53.882;10.642;2022-09-16T04:14:16;10.00;99.90
15926;DHT22;8062;53.882;10.642;2022-09-16T04:15:17;10.00;99.90
15926;DHT22;8062;53.882;10.642;2022-09-16T04:16:19;10.00;99.90
15926;DHT22;8062;53.882;10.642;2022-09-16T04:17:23;10.00;99.90
15926;DHT22;8062;53.882;10.642;2022-09-16T04:18:24;10.00;99.90
15926;DHT22;8062;53.882;10.642;2022-09-16T04:19:25;10.00;99.90
15926;DHT22;8062;53.882;10.642;2022-09-16T04:20:26;10.00;99.90
15926;DHT22;8062;53.882;10.642;2022-09-16T04:21:28;10.00;99.90
15926;DHT22;8062;53.882;10.642;2022-09-16T04:22:29;10.00;99.90
15926;DHT22;8062;53.882;10.642;2022-09-16T04:23:31;10.00;99.90
15926;DHT22;8062;53.882;10.642;2022-09-16T04:24:32;10.00;99.90
15926;DHT22;8062;53.882;10.642;2022-09-16T04:25:33;10.00;99.90
15926;DHT22;8062;53.882;10.642;2022-09-16T04:26:34;10.00;99.90
15926;DHT22;8062;53.882;10.642;2022-09-16T04:27:35;10.00;99.90
15926;DHT22;8062;53.882;10.642;2022-09-16T04:28:36;10.00;99.90
15926;DHT22;8062;53.882;10.642;2022-09-16T04:29:38;10.00;99.90
15926;DHT22;8062;53.882;10.642;2022-09-16T04:30:39;10.00;99.90
15926;DHT22;8062;53.882;10.642;2022-09-16T04:31:40;10.00;99.90
15926;DHT22;8062;53.882;10.642;2022-09-16T04:32:41;10.00;99.90
15926;DHT22;8062;53.882;10.642;2022-09-16T04:33:42;10.00;99.90
15926;DHT22;8062;53.882;10.642;2022-09-16T04:34:43;9.90;99.90
15926;DHT22;8062;53.882;10.642;2022-09-16T04:35:44;9.90;99.90
15926;DHT22;8062;53.882;10.642;2022-09-16T04:36:45;9.90;99.90
15926;DHT22;8062;53.882;10.642;2022-09-16T04:37:46;9.90;99.90
15926;DHT22;8062;53.882;10.642;2022-09-16T04:38:48;9.90;99.90
15926;DHT22;8062;53.882;10.642;2022-09-16T04:39:49;9.90;99.90
15926;DHT22;8062;53.882;10.642;2022-09-16T04:40:50;10.00;99.90
15926;DHT22;8062;53.882;10.642;2022-09-16T04:41:51;9.90;99.90
15926;DHT22;8062;53.882;10.642;2022-09-16T04:42:52;10.00;99.90
15926;DHT22;8062;53.882;10.642;2022-09-16T04:43:56;10.00;99.90
15926;DHT22;8062;53.882;10.642;2022-09-16T04:44:57;9.90;99.90
15926;DHT22;8062;53.882;10.642;2022-09-16T04:45:58;9.90;99.90
15926;DHT22;8062;53.882;10.642;2022-09-16T04:46:59;9.90;99.90
15926;DHT22;8062;53.882;10.642;2022-09-16T04:48:00;9.90;99.90
15926;DHT22;8062;53.882;10.642;2022-09-16T04:49:02;9.90;99.90
15926;DHT22;8062;53.882;10.642;2022-09-16T04:50:03;9.90;99.90
15926;DHT22;8062;53.882;10.642;2022-09-16T04:51:09;9.90;99.90
15926;DHT22;8062;53.882;10.642;2022-09-16T04:52:10;9.90;99.90
15926;DHT22;8062;53.882;10.642;2022-09-16T04:53:11;9.90;99.90
15926;DHT22;8062;53.882;10.642;2022-09-16T04:54:13;9.90;99.90
15926;DHT22;8062;53.882;10.642;2022-09-16T04:55:14;9.90;99.90
15926;DHT22;8062;53.882;10.642;2022-09-16T04:56:20;9.90;99.90
15926;DHT22;8062;53.882;10.642;2022-09-16T04:57:21;9.90;99.90
15926;DHT22;8062;53.882;10.642;2022-09-16T04:58:22;9.90;99.90
15926;DHT22;8062;53.882;10.642;2022-09-16T04:59:23;9.90;99.90
15926;DHT22;8062;53.882;10.642;2022-09-16T05:00:25;9.90;99.90
15926;DHT22;8062;53.882;10.642;2022-09-16T05:01:32;9.90;99.90
15926;DHT22;8062;53.882;10.642;2022-09-16T05:02:33;9.90;99.90
15926;DHT22;8062;53.882;10.642;2022-09-16T05:03:34;9.90;99.90
15926;DHT22;8062;53.882;10.642;2022-09-16T05:04:35;9.90;99.90
15926;DHT22;8062;53.882;10.642;2022-09-16T05:05:36;10.00;99.90
15926;DHT22;8062;53.882;10.642;2022-09-16T05:06:39;10.00;99.90
15926;DHT22;8062;53.882;10.642;2022-09-16T05:07:40;10.00;99.90
15926;DHT22;8062;53.882;10.642;2022-09-16T05:08:41;10.00;99.90
15926;DHT22;8062;53.882;10.642;2022-09-16T05:09:42;10.00;99.90
15926;DHT22;8062;53.882;10.642;2022-09-16T05:10:43;10.00;99.90
15926;DHT22;8062;53.882;10.642;2022-09-16T05:11:44;9.90;99.90
15926;DHT22;8062;53.882;10.642;2022-09-16T05:12:52;9.90;99.90
15926;DHT22;8062;53.882;10.642;2022-09-16T05:13:58;9.90;99.90
15926;DHT22;8062;53.882;10.642;2022-09-16T05:14:59;9.90;99.90
15926;DHT22;8062;53.882;10.642;2022-09-16T05:16:06;10.00;99.90
15926;DHT22;8062;53.882;10.642;2022-09-16T05:17:07;10.00;99.90
15926;DHT22;8062;53.882;10.642;2022-09-16T05:18:08;10.00;99.90
15926;DHT22;8062;53.882;10.642;2022-09-16T05:19:11;10.00;99.90
15926;DHT22;8062;53.882;10.642;2022-09-16T05:20:13;10.00;99.90
15926;DHT22;8062;53.882;10.642;2022-09-16T05:21:16;10.00;99.90
15926;DHT22;8062;53.882;10.642;2022-09-16T05:22:17;10.00;99.90
15926;DHT22;8062;53.882;10.642;2022-09-16T05:23:19;10.00;99.90
15926;DHT22;8062;53.882;10.642;2022-09-16T05:24:20;10.00;99.90
15926;DHT22;8062;53.882;10.642;2022-09-16T05:25:21;10.00;99.90
15926;DHT22;8062;53.882;10.642;2022-09-16T05:26:25;10.00;99.90
15926;DHT22;8062;53.882;10.642;2022-09-16T05:27:29;10.00;99.90
15926;DHT22;8062;53.882;10.642;2022-09-16T05:28:31;10.00;99.90
15926;DHT22;8062;53.882;10.642;2022-09-16T05:29:32;10.10;99.90
15926;DHT22;8062;53.882;10.642;2022-09-16T05:30:33;10.10;99.90
15926;DHT22;8062;53.882;10.642;2022-09-16T05:31:37;10.10;99.90
15926;DHT22;8062;53.882;10.642;2022-09-16T05:32:39;10.10;99.90
15926;DHT22;8062;53.882;10.642;2022-09-16T05:33:42;10.10;99.90
15926;DHT22;8062;53.882;10.642;2022-09-16T05:34:43;10.10;99.90
15926;DHT22;8062;53.882;10.642;2022-09-16T05:35:44;10.10;99.90
15926;DHT22;8062;53.882;10.642;2022-09-16T05:36:46;10.10;99.90
15926;DHT22;8062;53.882;10.642;2022-09-16T05:37:48;10.10;99.90
15926;DHT22;8062;53.882;10.642;2022-09-16T05:38:49;10.10;99.90
15926;DHT22;8062;53.882;10.642;2022-09-16T05:39:50;10.10;99.90
15926;DHT22;8062;53.882;10.642;2022-09-16T05:40:51;10.10;99.90
15926;DHT22;8062;53.882;10.642;2022-09-16T05:41:58;10.20;99.90
15926;DHT22;8062;53.882;10.642;2022-09-16T05:42:59;10.10;99.90
15926;DHT22;8062;53.882;10.642;2022-09-16T05:44:00;10.20;99.90
15926;DHT22;8062;53.882;10.642;2022-09-16T05:45:02;10.20;99.90
15926;DHT22;8062;53.882;10.642;2022-09-16T05:46:04;10.20;99.90
15926;DHT22;8062;53.882;10.642;2022-09-16T05:47:05;10.30;99.90
15926;DHT22;8062;53.882;10.642;2022-09-16T05:48:06;10.30;99.90
15926;DHT22;8062;53.882;10.642;2022-09-16T05:49:08;10.30;99.90
15926;DHT22;8062;53.882;10.642;2022-09-16T05:50:09;10.30;99.90
15926;DHT22;8062;53.882;10.642;2022-09-16T05:51:13;10.30;99.90
15926;DHT22;8062;53.882;10.642;2022-09-16T05:52:15;10.30;99.90
15926;DHT22;8062;53.882;10.642;2022-09-16T05:53:16;10.30;99.90
15926;DHT22;8062;53.882;10.642;2022-09-16T05:54:17;10.30;99.90
15926;DHT22;8062;53.882;10.642;2022-09-16T05:55:19;10.40;99.90
15926;DHT22;8062;53.882;10.642;2022-09-16T05:56:24;10.40;99.90
15926;DHT22;8062;53.882;10.642;2022-09-16T05:57:25;10.40;99.90
15926;DHT22;8062;53.882;10.642;2022-09-16T05:58:28;10.40;99.90
15926;DHT22;8062;53.882;10.642;2022-09-16T05:59:29;10.40;99.90
15926;DHT22;8062;53.882;10.642;2022-09-16T06:00:30;10.40;99.90
15926;DHT22;8062;53.882;10.642;2022-09-16T06:01:34;10.50;99.90
15926;DHT22;8062;53.882;10.642;2022-09-16T06:02:35;10.50;99.90
15926;DHT22;8062;53.882;10.642;2022-09-16T06:03:39;10.50;99.90
15926;DHT22;8062;53.882;10.642;2022-09-16T06:04:40;10.50;99.90
15926;DHT22;8062;53.882;10.642;2022-09-16T06:05:42;10.60;99.90
15926;DHT22;8062;53.882;10.642;2022-09-16T06:06:44;10.60;99.90
15926;DHT22;8062;53.882;10.642;2022-09-16T06:07:46;10.60;99.90
15926;DHT22;8062;53.882;10.642;2022-09-16T06:08:47;10.70;99.90
15926;DHT22;8062;53.882;10.642;2022-09-16T06:09:48;10.70;99.90
15926;DHT22;8062;53.882;10.642;2022-09-16T06:10:49;10.80;99.90
15926;DHT22;8062;53.882;10.642;2022-09-16T06:11:51;10.80;99.90
15926;DHT22;8062;53.882;10.642;2022-09-16T06:12:52;10.80;99.90
15926;DHT22;8062;53.882;10.642;2022-09-16T06:13:58;10.90;99.90
15926;DHT22;8062;53.882;10.642;2022-09-16T06:15:01;10.90;99.90
15926;DHT22;8062;53.882;10.642;2022-09-16T06:16:04;11.00;99.90
15926;DHT22;8062;53.882;10.642;2022-09-16T06:17:05;11.00;99.90
15926;DHT22;8062;53.882;10.642;2022-09-16T06:18:06;11.00;99.90
15926;DHT22;8062;53.882;10.642;2022-09-16T06:19:15;11.10;99.90
15926;DHT22;8062;53.882;10.642;2022-09-16T06:20:16;11.00;99.90
15926;DHT22;8062;53.882;10.642;2022-09-16T06:21:18;11.00;99.90
15926;DHT22;8062;53.882;10.642;2022-09-16T06:22:19;11.00;99.90
15926;DHT22;8062;53.882;10.642;2022-09-16T06:23:20;10.90;99.90
15926;DHT22;8062;53.882;10.642;2022-09-16T06:24:21;10.90;99.90
15926;DHT22;8062;53.882;10.642;2022-09-16T06:25:22;10.90;99.90
15926;DHT22;8062;53.882;10.642;2022-09-16T06:26:25;10.90;99.90
15926;DHT22;8062;53.882;10.642;2022-09-16T06:27:26;10.90;99.90
15926;DHT22;8062;53.882;10.642;2022-09-16T06:28:28;11.00;99.90
15926;DHT22;8062;53.882;10.642;2022-09-16T06:29:29;11.00;99.90
15926;DHT22;8062;53.882;10.642;2022-09-16T06:30:30;11.00;99.90
15926;DHT22;8062;53.882;10.642;2022-09-16T06:31:32;11.00;99.90
15926;DHT22;8062;53.882;10.642;2022-09-16T06:32:33;11.10;99.90
15926;DHT22;8062;53.882;10.642;2022-09-16T06:33:34;11.10;99.90
15926;DHT22;8062;53.882;10.642;2022-09-16T06:34:35;11.10;99.90
15926;DHT22;8062;53.882;10.642;2022-09-16T06:35:36;11.20;99.90
15926;DHT22;8062;53.882;10.642;2022-09-16T06:36:38;11.20;99.90
15926;DHT22;8062;53.882;10.642;2022-09-16T06:37:39;11.20;99.90
15926;DHT22;8062;53.882;10.642;2022-09-16T06:38:40;11.30;99.90
15926;DHT22;8062;53.882;10.642;2022-09-16T06:39:41;11.30;99.90
15926;DHT22;8062;53.882;10.642;2022-09-16T06:40:42;11.40;99.90
15926;DHT22;8062;53.882;10.642;2022-09-16T06:41:43;11.50;99.90
15926;DHT22;8062;53.882;10.642;2022-09-16T06:42:45;11.50;99.90
15926;DHT22;8062;53.882;10.642;2022-09-16T06:43:47;11.50;99.90
15926;DHT22;8062;53.882;10.642;2022-09-16T06:44:48;11.50;99.90
15926;DHT22;8062;53.882;10.642;2022-09-16T06:45:49;11.50;99.90
15926;DHT22;8062;53.882;10.642;2022-09-16T06:46:50;11.50;99.90
15926;DHT22;8062;53.882;10.642;2022-09-16T06:47:51;11.60;99.90
15926;DHT22;8062;53.882;10.642;2022-09-16T06:48:55;11.60;99.90
15926;DHT22;8062;53.882;10.642;2022-09-16T06:49:56;11.70;99.90
15926;DHT22;8062;53.882;10.642;2022-09-16T06:51:02;11.70;99.90
15926;DHT22;8062;53.882;10.642;2022-09-16T06:52:04;11.70;99.90
15926;DHT22;8062;53.882;10.642;2022-09-16T06:53:05;11.70;99.90
15926;DHT22;8062;53.882;10.642;2022-09-16T06:54:07;11.70;99.90
15926;DHT22;8062;53.882;10.642;2022-09-16T06:55:09;11.80;99.90
15926;DHT22;8062;53.882;10.642;2022-09-16T06:56:12;11.80;99.90
15926;DHT22;8062;53.882;10.642;2022-09-16T06:57:13;11.90;99.90
15926;DHT22;8062;53.882;10.642;2022-09-16T06:58:14;11.90;99.90
15926;DHT22;8062;53.882;10.642;2022-09-16T06:59:15;11.90;99.90
15926;DHT22;8062;53.882;10.642;2022-09-16T07:00:16;12.00;99.90
15926;DHT22;8062;53.882;10.642;2022-09-16T07:01:20;12.10;99.90
15926;DHT22;8062;53.882;10.642;2022-09-16T07:02:21;12.10;99.90
15926;DHT22;8062;53.882;10.642;2022-09-16T07:03:23;12.10;99.90
15926;DHT22;8062;53.882;10.642;2022-09-16T07:04:24;12.20;99.90
15926;DHT22;8062;53.882;10.642;2022-09-16T07:05:25;12.20;99.90
15926;DHT22;8062;53.882;10.642;2022-09-16T07:06:28;12.20;99.90
15926;DHT22;8062;53.882;10.642;2022-09-16T07:07:30;12.20;99.90
15926;DHT22;8062;53.882;10.642;2022-09-16T07:08:35;12.30;99.90
15926;DHT22;8062;53.882;10.642;2022-09-16T07:09:36;12.20;99.90
15926;DHT22;8062;53.882;10.642;2022-09-16T07:10:37;12.30;99.90
15926;DHT22;8062;53.882;10.642;2022-09-16T07:11:38;12.40;99.90
15926;DHT22;8062;53.882;10.642;2022-09-16T07:12:40;12.40;99.90
15926;DHT22;8062;53.882;10.642;2022-09-16T07:13:43;12.50;99.90
15926;DHT22;8062;53.882;10.642;2022-09-16T07:14:44;12.50;99.90
15926;DHT22;8062;53.882;10.642;2022-09-16T07:15:45;12.60;99.90
15926;DHT22;8062;53.882;10.642;2022-09-16T07:16:46;12.70;99.90
15926;DHT22;8062;53.882;10.642;2022-09-16T07:17:52;12.70;99.90
15926;DHT22;8062;53.882;10.642;2022-09-16T07:18:56;12.70;99.90
15926;DHT22;8062;53.882;10.642;2022-09-16T07:19:57;12.80;99.90
15926;DHT22;8062;53.882;10.642;2022-09-16T07:21:12;12.80;99.90
15926;DHT22;8062;53.882;10.642;2022-09-16T07:22:14;12.90;99.90
15926;DHT22;8062;53.882;10.642;2022-09-16T07:23:15;13.00;99.90
15926;DHT22;8062;53.882;10.642;2022-09-16T07:24:16;13.10;99.90